sensor_id;sensor_type;location;lat;lon;timestamp;temperature;humidity
79026;DHT22;74892;44.760;37.726;2024-02-23T05:39:29;8.02;76.69
79026;DHT22;74892;44.760;37.726;2024-02-23T05:42:25;8.15;76.44
79026;DHT22;74892;44.760;37.726;2024-02-23T05:43:27;8.17;76.58
79026;DHT22;74892;44.760;37.726;2024-02-23T05:44:29;8.21;76.18
79026;DHT22;74892;44.760;37.726;2024-02-23T05:45:31;8.22;76.53
79026;DHT22;74892;44.760;37.726;2024-02-23T05:46:33;8.26;76.35
79026;DHT22;74892;44.760;37.726;2024-02-23T05:47:36;8.28;76.42
79026;DHT22;74892;44.760;37.726;2024-02-23T05:48:38;8.33;75.92
79026;DHT22;74892;44.760;37.726;2024-02-23T05:49:40;8.37;75.47
79026;DHT22;74892;44.760;37.726;2024-02-23T05:50:41;8.44;75.14
79026;DHT22;74892;44.760;37.726;2024-02-23T05:51:43;8.51;74.64
79026;DHT22;74892;44.760;37.726;2024-02-23T05:52:45;8.57;74.51
79026;DHT22;74892;44.760;37.726;2024-02-23T05:53:46;8.60;74.12
79026;DHT22;74892;44.760;37.726;2024-02-23T05:54:48;8.65;74.05
79026;DHT22;74892;44.760;37.726;2024-02-23T05:55:50;8.71;74.10
79026;DHT22;74892;44.760;37.726;2024-02-23T05:56:51;8.79;73.70
79026;DHT22;74892;44.760;37.726;2024-02-23T05:57:53;8.87;73.64
79026;DHT22;74892;44.760;37.726;2024-02-23T05:58:55;8.96;73.50
79026;DHT22;74892;44.760;37.726;2024-02-23T05:59:56;9.05;72.95
79026;DHT22;74892;44.760;37.726;2024-02-23T06:00:58;9.15;72.74
79026;DHT22;74892;44.760;37.726;2024-02-23T06:02:00;9.23;72.26
79026;DHT22;74892;44.760;37.726;2024-02-23T06:03:02;9.35;72.14
79026;DHT22;74892;44.760;37.726;2024-02-23T06:04:03;9.49;71.78
79026;DHT22;74892;44.760;37.726;2024-02-23T06:05:05;9.71;71.12
79026;DHT22;74892;44.760;37.726;2024-02-23T06:54:58;19.06;41.84
79026;DHT22;74892;44.760;37.726;2024-02-23T06:56:00;19.14;42.22
79026;DHT22;74892;44.760;37.726;2024-02-23T06:57:04;19.00;42.00
79026;DHT22;74892;44.760;37.726;2024-02-23T06:58:08;18.98;42.38
79026;DHT22;74892;44.760;37.726;2024-02-23T06:59:11;19.09;42.11
79026;DHT22;74892;44.760;37.726;2024-02-23T07:00:14;19.24;41.64
79026;DHT22;74892;44.760;37.726;2024-02-23T07:01:20;19.25;41.89
79026;DHT22;74892;44.760;37.726;2024-02-23T07:02:25;19.38;41.33
79026;DHT22;74892;44.760;37.726;2024-02-23T07:03:29;19.50;41.42
79026;DHT22;74892;44.760;37.726;2024-02-23T07:04:37;19.77;41.36
79026;DHT22;74892;44.760;37.726;2024-02-23T07:05:50;19.88;39.91
79026;DHT22;74892;44.760;37.726;2024-02-23T07:07:01;19.91;39.62
79026;DHT22;74892;44.760;37.726;2024-02-23T07:08:11;20.09;39.72
79026;DHT22;74892;44.760;37.726;2024-02-23T07:09:13;20.04;39.32
79026;DHT22;74892;44.760;37.726;2024-02-23T07:10:15;19.65;39.76
79026;DHT22;74892;44.760;37.726;2024-02-23T07:11:19;19.39;40.91
79026;DHT22;74892;44.760;37.726;2024-02-23T07:12:23;19.37;40.94
79026;DHT22;74892;44.760;37.726;2024-02-23T07:13:25;19.33;40.88
79026;DHT22;74892;44.760;37.726;2024-02-23T07:14:27;19.14;40.84
79026;DHT22;74892;44.760;37.726;2024-02-23T07:15:29;18.93;41.74
79026;DHT22;74892;44.760;37.726;2024-02-23T07:16:44;18.86;41.68
79026;DHT22;74892;44.760;37.726;2024-02-23T07:17:58;18.37;43.33
79026;DHT22;74892;44.760;37.726;2024-02-23T07:19:23;18.28;43.87
79026;DHT22;74892;44.760;37.726;2024-02-23T07:20:35;18.50;42.93
79026;DHT22;74892;44.760;37.726;2024-02-23T07:21:36;18.80;41.66
79026;DHT22;74892;44.760;37.726;2024-02-23T07:22:38;19.05;41.77
79026;DHT22;74892;44.760;37.726;2024-02-23T07:23:40;19.00;41.35
79026;DHT22;74892;44.760;37.726;2024-02-23T07:24:48;19.00;41.52
79026;DHT22;74892;44.760;37.726;2024-02-23T07:25:54;18.98;41.84
79026;DHT22;74892;44.760;37.726;2024-02-23T07:26:56;18.92;41.27
79026;DHT22;74892;44.760;37.726;2024-02-23T07:27:58;18.84;41.77
79026;DHT22;74892;44.760;37.726;2024-02-23T07:28:59;18.73;42.32
79026;DHT22;74892;44.760;37.726;2024-02-23T07:30:01;18.12;43.30
79026;DHT22;74892;44.760;37.726;2024-02-23T07:31:04;17.39;45.41
79026;DHT22;74892;44.760;37.726;2024-02-23T07:32:12;16.74;46.93
79026;DHT22;74892;44.760;37.726;2024-02-23T07:33:16;16.28;48.44
79026;DHT22;74892;44.760;37.726;2024-02-23T07:34:21;16.11;49.02
79026;DHT22;74892;44.760;37.726;2024-02-23T07:35:23;15.92;49.47
79026;DHT22;74892;44.760;37.726;2024-02-23T07:36:24;15.86;49.99
79026;DHT22;74892;44.760;37.726;2024-02-23T07:37:27;15.56;50.75
79026;DHT22;74892;44.760;37.726;2024-02-23T07:38:29;15.22;51.61
79026;DHT22;74892;44.760;37.726;2024-02-23T07:39:33;14.85;52.33
79026;DHT22;74892;44.760;37.726;2024-02-23T07:40:36;14.49;53.38
79026;DHT22;74892;44.760;37.726;2024-02-23T07:41:37;14.36;54.07
79026;DHT22;74892;44.760;37.726;2024-02-23T07:42:39;14.36;54.40
79026;DHT22;74892;44.760;37.726;2024-02-23T07:43:41;14.34;54.87
79026;DHT22;74892;44.760;37.726;2024-02-23T07:44:44;14.27;55.16
79026;DHT22;74892;44.760;37.726;2024-02-23T07:45:45;14.17;55.13
79026;DHT22;74892;44.760;37.726;2024-02-23T07:46:47;14.11;55.28
79026;DHT22;74892;44.760;37.726;2024-02-23T07:47:49;14.13;55.16
79026;DHT22;74892;44.760;37.726;2024-02-23T07:48:54;14.01;55.71
79026;DHT22;74892;44.760;37.726;2024-02-23T07:49:55;13.86;55.74
79026;DHT22;74892;44.760;37.726;2024-02-23T07:50:57;13.74;56.07
79026;DHT22;74892;44.760;37.726;2024-02-23T07:52:02;13.58;56.26
79026;DHT22;74892;44.760;37.726;2024-02-23T07:53:13;13.39;57.29
79026;DHT22;74892;44.760;37.726;2024-02-23T07:54:15;13.16;57.95
79026;DHT22;74892;44.760;37.726;2024-02-23T07:55:20;13.05;58.78
79026;DHT22;74892;44.760;37.726;2024-02-23T07:56:21;12.97;58.99
79026;DHT22;74892;44.760;37.726;2024-02-23T07:57:23;12.91;59.69
79026;DHT22;74892;44.760;37.726;2024-02-23T07:58:25;12.88;59.97
79026;DHT22;74892;44.760;37.726;2024-02-23T07:59:30;12.80;60.51
79026;DHT22;74892;44.760;37.726;2024-02-23T08:00:32;12.67;60.42
79026;DHT22;74892;44.760;37.726;2024-02-23T08:01:38;12.66;60.82
79026;DHT22;74892;44.760;37.726;2024-02-23T08:02:43;12.61;60.96
79026;DHT22;74892;44.760;37.726;2024-02-23T08:03:45;12.67;61.44
79026;DHT22;74892;44.760;37.726;2024-02-23T08:04:47;12.78;61.09
79026;DHT22;74892;44.760;37.726;2024-02-23T08:05:49;13.01;60.07
79026;DHT22;74892;44.760;37.726;2024-02-23T08:06:51;13.27;59.64
79026;DHT22;74892;44.760;37.726;2024-02-23T08:07:55;13.39;58.01
79026;DHT22;74892;44.760;37.726;2024-02-23T08:08:57;13.37;58.77
79026;DHT22;74892;44.760;37.726;2024-02-23T08:09:59;13.23;59.65
79026;DHT22;74892;44.760;37.726;2024-02-23T08:11:01;13.19;59.44
79026;DHT22;74892;44.760;37.726;2024-02-23T08:12:04;13.62;58.00
79026;DHT22;74892;44.760;37.726;2024-02-23T08:13:12;13.85;56.45
79026;DHT22;74892;44.760;37.726;2024-02-23T08:14:14;13.63;58.06
79026;DHT22;74892;44.760;37.726;2024-02-23T08:15:17;13.48;58.06
79026;DHT22;74892;44.760;37.726;2024-02-23T08:16:21;13.37;58.38
79026;DHT22;74892;44.760;37.726;2024-02-23T08:17:23;13.18;58.58
79026;DHT22;74892;44.760;37.726;2024-02-23T08:18:25;13.04;59.22
79026;DHT22;74892;44.760;37.726;2024-02-23T08:19:28;12.91;59.64
79026;DHT22;74892;44.760;37.726;2024-02-23T08:20:35;12.86;60.01
79026;DHT22;74892;44.760;37.726;2024-02-23T08:21:39;13.04;60.41
79026;DHT22;74892;44.760;37.726;2024-02-23T08:22:45;13.63;57.90
79026;DHT22;74892;44.760;37.726;2024-02-23T08:23:47;13.56;58.60
79026;DHT22;74892;44.760;37.726;2024-02-23T08:24:49;13.47;58.99
79026;DHT22;74892;44.760;37.726;2024-02-23T08:25:53;13.21;59.11
79026;DHT22;74892;44.760;37.726;2024-02-23T08:26:55;13.10;59.90
79026;DHT22;74892;44.760;37.726;2024-02-23T08:27:56;13.12;59.96
79026;DHT22;74892;44.760;37.726;2024-02-23T08:29:00;13.09;59.74
79026;DHT22;74892;44.760;37.726;2024-02-23T08:30:02;13.05;59.86
79026;DHT22;74892;44.760;37.726;2024-02-23T08:31:04;12.91;60.32
79026;DHT22;74892;44.760;37.726;2024-02-23T08:32:06;12.84;60.78
79026;DHT22;74892;44.760;37.726;2024-02-23T08:33:08;12.79;61.44
79026;DHT22;74892;44.760;37.726;2024-02-23T08:34:11;12.86;61.44
79026;DHT22;74892;44.760;37.726;2024-02-23T08:35:13;12.82;61.89
79026;DHT22;74892;44.760;37.726;2024-02-23T08:36:17;12.82;61.63
79026;DHT22;74892;44.760;37.726;2024-02-23T08:37:19;12.74;61.38
79026;DHT22;74892;44.760;37.726;2024-02-23T08:38:21;12.73;61.86
79026;DHT22;74892;44.760;37.726;2024-02-23T08:39:23;12.66;61.98
79026;DHT22;74892;44.760;37.726;2024-02-23T08:40:30;12.71;61.54
79026;DHT22;74892;44.760;37.726;2024-02-23T08:41:34;12.70;62.07
79026;DHT22;74892;44.760;37.726;2024-02-23T08:42:39;12.76;61.64
79026;DHT22;74892;44.760;37.726;2024-02-23T08:43:40;12.71;61.57
79026;DHT22;74892;44.760;37.726;2024-02-23T08:44:42;12.75;62.10
79026;DHT22;74892;44.760;37.726;2024-02-23T08:45:44;12.85;62.23
79026;DHT22;74892;44.760;37.726;2024-02-23T08:46:47;13.05;61.19
79026;DHT22;74892;44.760;37.726;2024-02-23T08:47:49;13.65;59.41
79026;DHT22;74892;44.760;37.726;2024-02-23T08:48:51;14.27;57.17
79026;DHT22;74892;44.760;37.726;2024-02-23T08:49:55;14.71;54.34
79026;DHT22;74892;44.760;37.726;2024-02-23T08:50:57;15.11;54.09
79026;DHT22;74892;44.760;37.726;2024-02-23T08:52:02;15.57;51.82
79026;DHT22;74892;44.760;37.726;2024-02-23T08:53:07;15.81;49.30
79026;DHT22;74892;44.760;37.726;2024-02-23T08:54:09;15.41;49.27
79026;DHT22;74892;44.760;37.726;2024-02-23T08:55:11;14.95;50.21
79026;DHT22;74892;44.760;37.726;2024-02-23T08:56:13;15.04;50.58
79026;DHT22;74892;44.760;37.726;2024-02-23T08:57:17;15.46;49.31
79026;DHT22;74892;44.760;37.726;2024-02-23T08:58:20;15.76;49.05
79026;DHT22;74892;44.760;37.726;2024-02-23T08:59:22;16.07;47.67
79026;DHT22;74892;44.760;37.726;2024-02-23T09:00:24;16.31;47.38
79026;DHT22;74892;44.760;37.726;2024-02-23T09:01:26;16.22;45.73
79026;DHT22;74892;44.760;37.726;2024-02-23T09:02:28;15.87;46.49
79026;DHT22;74892;44.760;37.726;2024-02-23T09:03:30;15.87;46.49
79026;DHT22;74892;44.760;37.726;2024-02-23T09:04:33;16.00;47.17
79026;DHT22;74892;44.760;37.726;2024-02-23T09:05:34;16.08;47.41
79026;DHT22;74892;44.760;37.726;2024-02-23T09:06:39;15.78;48.17
79026;DHT22;74892;44.760;37.726;2024-02-23T09:07:40;15.39;49.33
79026;DHT22;74892;44.760;37.726;2024-02-23T09:08:42;14.96;51.08
79026;DHT22;74892;44.760;37.726;2024-02-23T09:09:44;15.18;50.99
79026;DHT22;74892;44.760;37.726;2024-02-23T09:10:46;15.08;50.68
79026;DHT22;74892;44.760;37.726;2024-02-23T09:11:48;15.01;50.64
79026;DHT22;74892;44.760;37.726;2024-02-23T09:12:53;14.83;51.28
79026;DHT22;74892;44.760;37.726;2024-02-23T09:13:55;14.70;52.04
79026;DHT22;74892;44.760;37.726;2024-02-23T09:14:57;14.72;52.37
79026;DHT22;74892;44.760;37.726;2024-02-23T09:15:59;14.69;52.34
79026;DHT22;74892;44.760;37.726;2024-02-23T09:17:01;14.66;52.96
79026;DHT22;74892;44.760;37.726;2024-02-23T09:18:02;14.71;52.64
79026;DHT22;74892;44.760;37.726;2024-02-23T09:19:04;14.62;52.19
79026;DHT22;74892;44.760;37.726;2024-02-23T09:20:07;14.50;52.93
79026;DHT22;74892;44.760;37.726;2024-02-23T09:21:11;14.47;52.28
79026;DHT22;74892;44.760;37.726;2024-02-23T09:22:13;14.38;51.45
79026;DHT22;74892;44.760;37.726;2024-02-23T09:23:15;14.24;52.12
79026;DHT22;74892;44.760;37.726;2024-02-23T09:24:16;14.10;52.90
79026;DHT22;74892;44.760;37.726;2024-02-23T09:25:18;14.00;53.77
79026;DHT22;74892;44.760;37.726;2024-02-23T09:26:20;13.99;54.39
79026;DHT22;74892;44.760;37.726;2024-02-23T09:27:21;14.07;54.34
79026;DHT22;74892;44.760;37.726;2024-02-23T09:28:23;14.03;54.50
79026;DHT22;74892;44.760;37.726;2024-02-23T09:29:25;14.00;54.60
79026;DHT22;74892;44.760;37.726;2024-02-23T09:30:27;14.20;54.21
79026;DHT22;74892;44.760;37.726;2024-02-23T09:31:28;14.35;53.70
79026;DHT22;74892;44.760;37.726;2024-02-23T09:32:34;14.42;53.72
79026;DHT22;74892;44.760;37.726;2024-02-23T09:33:37;14.60;53.16
79026;DHT22;74892;44.760;37.726;2024-02-23T09:34:39;14.45;52.95
79026;DHT22;74892;44.760;37.726;2024-02-23T09:35:43;14.32;53.63
79026;DHT22;74892;44.760;37.726;2024-02-23T09:36:48;14.23;54.46
79026;DHT22;74892;44.760;37.726;2024-02-23T09:37:50;14.26;54.19
79026;DHT22;74892;44.760;37.726;2024-02-23T09:38:51;14.25;54.12
79026;DHT22;74892;44.760;37.726;2024-02-23T09:39:53;14.23;54.54
79026;DHT22;74892;44.760;37.726;2024-02-23T09:40:58;14.47;53.66
79026;DHT22;74892;44.760;37.726;2024-02-23T09:42:07;14.77;52.25
79026;DHT22;74892;44.760;37.726;2024-02-23T09:43:14;15.06;51.07
79026;DHT22;74892;44.760;37.726;2024-02-23T09:44:18;14.99;51.49
79026;DHT22;74892;44.760;37.726;2024-02-23T09:45:23;15.03;51.76
79026;DHT22;74892;44.760;37.726;2024-02-23T09:46:26;14.92;52.26
79026;DHT22;74892;44.760;37.726;2024-02-23T09:47:28;14.81;51.09
79026;DHT22;74892;44.760;37.726;2024-02-23T09:48:31;14.74;52.54
79026;DHT22;74892;44.760;37.726;2024-02-23T09:49:38;15.08;50.87
79026;DHT22;74892;44.760;37.726;2024-02-23T09:50:44;15.18;50.43
79026;DHT22;74892;44.760;37.726;2024-02-23T09:51:47;15.47;50.28
79026;DHT22;74892;44.760;37.726;2024-02-23T09:52:50;15.53;49.49
79026;DHT22;74892;44.760;37.726;2024-02-23T09:53:52;15.40;49.53
79026;DHT22;74892;44.760;37.726;2024-02-23T09:54:54;15.14;49.95
79026;DHT22;74892;44.760;37.726;2024-02-23T09:55:57;14.88;51.08
79026;DHT22;74892;44.760;37.726;2024-02-23T11:43:14;11.91;68.79
79026;DHT22;74892;44.760;37.726;2024-02-23T11:44:16;11.94;69.55
79026;DHT22;74892;44.760;37.726;2024-02-23T11:45:21;11.99;69.31
79026;DHT22;74892;44.760;37.726;2024-02-23T11:46:24;11.97;69.97
79026;DHT22;74892;44.760;37.726;2024-02-23T11:47:25;12.02;69.87
79026;DHT22;74892;44.760;37.726;2024-02-23T11:52:18;11.92;66.75
79026;DHT22;74892;44.760;37.726;2024-02-23T11:53:20;11.96;67.42
79026;DHT22;74892;44.760;37.726;2024-02-23T11:54:22;12.01;66.99
79026;DHT22;74892;44.760;37.726;2024-02-23T11:55:24;12.02;65.06
79026;DHT22;74892;44.760;37.726;2024-02-23T11:56:26;12.02;64.98
79026;DHT22;74892;44.760;37.726;2024-02-23T11:57:28;11.98;65.35
79026;DHT22;74892;44.760;37.726;2024-02-23T11:58:29;12.06;65.50
79026;DHT22;74892;44.760;37.726;2024-02-23T11:59:32;12.06;64.76
79026;DHT22;74892;44.760;37.726;2024-02-23T12:00:34;12.17;62.89
79026;DHT22;74892;44.760;37.726;2024-02-23T12:01:36;12.40;62.17
79026;DHT22;74892;44.760;37.726;2024-02-23T12:02:38;12.49;60.40
79026;DHT22;74892;44.760;37.726;2024-02-23T12:03:40;12.51;60.80
79026;DHT22;74892;44.760;37.726;2024-02-23T12:04:42;12.63;60.81
79026;DHT22;74892;44.760;37.726;2024-02-23T12:05:43;12.92;60.83
79026;DHT22;74892;44.760;37.726;2024-02-23T12:06:45;13.27;60.44
79026;DHT22;74892;44.760;37.726;2024-02-23T12:07:47;13.61;58.40
79026;DHT22;74892;44.760;37.726;2024-02-23T12:08:49;13.77;57.35
79026;DHT22;74892;44.760;37.726;2024-02-23T12:09:50;13.99;56.98
79026;DHT22;74892;44.760;37.726;2024-02-23T12:10:55;14.03;57.49
79026;DHT22;74892;44.760;37.726;2024-02-23T12:11:57;14.15;57.31
79026;DHT22;74892;44.760;37.726;2024-02-23T12:13:03;14.34;56.61
79026;DHT22;74892;44.760;37.726;2024-02-23T12:14:05;14.36;56.77
79026;DHT22;74892;44.760;37.726;2024-02-23T12:15:10;14.55;56.69
79026;DHT22;74892;44.760;37.726;2024-02-23T12:16:11;14.78;56.12
79026;DHT22;74892;44.760;37.726;2024-02-23T12:17:13;14.88;55.80
79026;DHT22;74892;44.760;37.726;2024-02-23T12:18:16;14.83;56.64
79026;DHT22;74892;44.760;37.726;2024-02-23T12:19:17;14.75;56.65
79026;DHT22;74892;44.760;37.726;2024-02-23T12:20:22;14.47;57.69
79026;DHT22;74892;44.760;37.726;2024-02-23T12:21:24;14.14;59.16
79026;DHT22;74892;44.760;37.726;2024-02-23T12:22:26;13.94;59.98
79026;DHT22;74892;44.760;37.726;2024-02-23T12:23:49;13.78;60.66
79026;DHT22;74892;44.760;37.726;2024-02-23T12:24:51;13.62;60.55
79026;DHT22;74892;44.760;37.726;2024-02-23T12:25:59;13.49;60.80
79026;DHT22;74892;44.760;37.726;2024-02-23T12:27:01;13.40;60.86
79026;DHT22;74892;44.760;37.726;2024-02-23T12:28:03;13.34;61.28
79026;DHT22;74892;44.760;37.726;2024-02-23T12:29:05;13.40;62.08
79026;DHT22;74892;44.760;37.726;2024-02-23T12:30:13;13.33;61.72
79026;DHT22;74892;44.760;37.726;2024-02-23T12:31:16;13.25;62.90
79026;DHT22;74892;44.760;37.726;2024-02-23T12:32:24;13.17;62.21
79026;DHT22;74892;44.760;37.726;2024-02-23T12:33:29;13.08;62.89
79026;DHT22;74892;44.760;37.726;2024-02-23T12:34:32;13.12;63.42
79026;DHT22;74892;44.760;37.726;2024-02-23T12:35:34;13.15;62.73
79026;DHT22;74892;44.760;37.726;2024-02-23T12:36:37;13.06;63.11
79026;DHT22;74892;44.760;37.726;2024-02-23T12:37:40;12.99;63.82
79026;DHT22;74892;44.760;37.726;2024-02-23T12:38:45;13.02;63.69
79026;DHT22;74892;44.760;37.726;2024-02-23T12:39:46;13.00;64.14
79026;DHT22;74892;44.760;37.726;2024-02-23T12:40:48;13.01;63.05
79026;DHT22;74892;44.760;37.726;2024-02-23T12:41:50;13.00;62.45
79026;DHT22;74892;44.760;37.726;2024-02-23T12:42:54;13.08;61.55
79026;DHT22;74892;44.760;37.726;2024-02-23T12:43:56;13.10;60.02
79026;DHT22;74892;44.760;37.726;2024-02-23T12:44:58;13.11;59.41
79026;DHT22;74892;44.760;37.726;2024-02-23T12:46:00;12.96;59.10
79026;DHT22;74892;44.760;37.726;2024-02-23T12:47:04;12.80;60.42
79026;DHT22;74892;44.760;37.726;2024-02-23T12:48:06;12.66;60.57
79026;DHT22;74892;44.760;37.726;2024-02-23T12:49:08;12.60;61.31
79026;DHT22;74892;44.760;37.726;2024-02-23T12:50:10;12.44;62.16
79026;DHT22;74892;44.760;37.726;2024-02-23T12:51:12;12.34;62.63
79026;DHT22;74892;44.760;37.726;2024-02-23T12:52:14;12.32;63.02
79026;DHT22;74892;44.760;37.726;2024-02-23T12:54:34;12.30;63.25
79026;DHT22;74892;44.760;37.726;2024-02-23T12:55:36;12.30;63.67
79026;DHT22;74892;44.760;37.726;2024-02-23T12:56:41;12.31;63.35
79026;DHT22;74892;44.760;37.726;2024-02-23T12:57:43;12.28;63.23
79026;DHT22;74892;44.760;37.726;2024-02-23T12:58:45;12.35;63.04
79026;DHT22;74892;44.760;37.726;2024-02-23T12:59:47;12.48;62.92
79026;DHT22;74892;44.760;37.726;2024-02-23T13:00:49;12.72;62.85
79026;DHT22;74892;44.760;37.726;2024-02-23T13:01:50;12.96;61.79
79026;DHT22;74892;44.760;37.726;2024-02-23T13:02:52;13.20;61.53
79026;DHT22;74892;44.760;37.726;2024-02-23T13:03:54;13.22;61.60
79026;DHT22;74892;44.760;37.726;2024-02-23T13:04:56;13.12;61.50
79026;DHT22;74892;44.760;37.726;2024-02-23T13:05:58;12.95;62.21
79026;DHT22;74892;44.760;37.726;2024-02-23T13:06:59;12.85;63.34
79026;DHT22;74892;44.760;37.726;2024-02-23T13:08:01;12.79;63.45
79026;DHT22;74892;44.760;37.726;2024-02-23T13:09:03;12.73;64.25
79026;DHT22;74892;44.760;37.726;2024-02-23T13:10:05;12.73;64.67
79026;DHT22;74892;44.760;37.726;2024-02-23T13:11:07;12.74;64.45
79026;DHT22;74892;44.760;37.726;2024-02-23T13:12:09;12.73;64.07
79026;DHT22;74892;44.760;37.726;2024-02-23T13:13:11;12.65;62.39
79026;DHT22;74892;44.760;37.726;2024-02-23T13:14:17;12.59;63.15
79026;DHT22;74892;44.760;37.726;2024-02-23T13:15:18;12.57;63.02
79026;DHT22;74892;44.760;37.726;2024-02-23T13:16:20;12.56;62.89
79026;DHT22;74892;44.760;37.726;2024-02-23T13:17:22;12.49;63.52
79026;DHT22;74892;44.760;37.726;2024-02-23T13:18:23;12.45;63.85
79026;DHT22;74892;44.760;37.726;2024-02-23T13:19:25;12.47;64.09
79026;DHT22;74892;44.760;37.726;2024-02-23T13:20:27;12.44;64.03
79026;DHT22;74892;44.760;37.726;2024-02-23T13:21:28;12.35;64.54
79026;DHT22;74892;44.760;37.726;2024-02-23T13:22:30;12.35;64.71
79026;DHT22;74892;44.760;37.726;2024-02-23T13:23:32;12.27;64.30
79026;DHT22;74892;44.760;37.726;2024-02-23T13:24:34;12.22;64.48
79026;DHT22;74892;44.760;37.726;2024-02-23T13:25:36;12.23;64.97
79026;DHT22;74892;44.760;37.726;2024-02-23T13:26:38;12.17;66.01
79026;DHT22;74892;44.760;37.726;2024-02-23T13:27:39;12.13;66.53
79026;DHT22;74892;44.760;37.726;2024-02-23T13:28:44;12.10;66.63
79026;DHT22;74892;44.760;37.726;2024-02-23T13:29:45;12.06;66.72
79026;DHT22;74892;44.760;37.726;2024-02-23T13:30:47;12.04;66.58
79026;DHT22;74892;44.760;37.726;2024-02-23T13:31:49;12.05;66.70
79026;DHT22;74892;44.760;37.726;2024-02-23T13:32:50;12.10;67.20
79026;DHT22;74892;44.760;37.726;2024-02-23T13:33:53;12.10;66.85
79026;DHT22;74892;44.760;37.726;2024-02-23T13:34:55;12.07;67.17
79026;DHT22;74892;44.760;37.726;2024-02-23T13:35:57;12.04;66.70
79026;DHT22;74892;44.760;37.726;2024-02-23T13:36:58;11.99;66.79
79026;DHT22;74892;44.760;37.726;2024-02-23T13:38:00;11.94;66.63
79026;DHT22;74892;44.760;37.726;2024-02-23T13:39:04;11.87;66.94
79026;DHT22;74892;44.760;37.726;2024-02-23T13:40:07;11.85;67.07
79026;DHT22;74892;44.760;37.726;2024-02-23T13:41:10;11.83;67.23
79026;DHT22;74892;44.760;37.726;2024-02-23T13:42:13;11.83;67.39
79026;DHT22;74892;44.760;37.726;2024-02-23T13:43:14;11.79;67.42
79026;DHT22;74892;44.760;37.726;2024-02-23T13:44:16;11.75;67.53
79026;DHT22;74892;44.760;37.726;2024-02-23T13:45:19;11.72;67.94
79026;DHT22;74892;44.760;37.726;2024-02-23T13:46:21;11.74;67.88
79026;DHT22;74892;44.760;37.726;2024-02-23T13:47:22;11.74;67.82
79026;DHT22;74892;44.760;37.726;2024-02-23T13:48:24;11.74;67.89
79026;DHT22;74892;44.760;37.726;2024-02-23T13:49:26;11.71;68.16
79026;DHT22;74892;44.760;37.726;2024-02-23T13:50:28;11.71;68.17
79026;DHT22;74892;44.760;37.726;2024-02-23T13:51:31;11.75;68.30
79026;DHT22;74892;44.760;37.726;2024-02-23T13:52:32;11.77;68.39
79026;DHT22;74892;44.760;37.726;2024-02-23T13:53:34;11.75;68.90
79026;DHT22;74892;44.760;37.726;2024-02-23T13:54:38;11.72;69.33
79026;DHT22;74892;44.760;37.726;2024-02-23T13:55:40;11.77;69.46
79026;DHT22;74892;44.760;37.726;2024-02-23T13:56:45;11.77;69.49
79026;DHT22;74892;44.760;37.726;2024-02-23T13:57:47;11.82;69.13
79026;DHT22;74892;44.760;37.726;2024-02-23T13:58:50;11.82;69.56
79026;DHT22;74892;44.760;37.726;2024-02-23T13:59:51;11.77;69.37
79026;DHT22;74892;44.760;37.726;2024-02-23T14:00:53;11.76;69.70
79026;DHT22;74892;44.760;37.726;2024-02-23T14:01:55;11.77;69.69
79026;DHT22;74892;44.760;37.726;2024-02-23T14:02:57;11.77;69.16
79026;DHT22;74892;44.760;37.726;2024-02-23T14:03:58;11.78;69.44
79026;DHT22;74892;44.760;37.726;2024-02-23T14:05:01;11.79;69.79
79026;DHT22;74892;44.760;37.726;2024-02-23T14:06:04;11.81;69.45
79026;DHT22;74892;44.760;37.726;2024-02-23T14:07:07;11.76;69.00
79026;DHT22;74892;44.760;37.726;2024-02-23T15:28:37;10.40;72.62
79026;DHT22;74892;44.760;37.726;2024-02-23T15:36:56;10.31;72.71
79026;DHT22;74892;44.760;37.726;2024-02-23T15:38:06;10.36;72.73
79026;DHT22;74892;44.760;37.726;2024-02-23T15:39:14;10.38;72.71
79026;DHT22;74892;44.760;37.726;2024-02-23T15:40:19;10.37;72.77
79026;DHT22;74892;44.760;37.726;2024-02-23T15:41:21;10.39;72.89
79026;DHT22;74892;44.760;37.726;2024-02-23T15:42:25;10.41;72.77
79026;DHT22;74892;44.760;37.726;2024-02-23T15:43:34;10.41;72.73
79026;DHT22;74892;44.760;37.726;2024-02-23T15:44:36;10.41;72.69
79026;DHT22;74892;44.760;37.726;2024-02-23T15:45:44;10.41;72.64
79026;DHT22;74892;44.760;37.726;2024-02-23T15:46:49;10.42;72.87
79026;DHT22;74892;44.760;37.726;2024-02-23T15:47:53;10.43;72.89
79026;DHT22;74892;44.760;37.726;2024-02-23T15:49:14;10.44;72.78
79026;DHT22;74892;44.760;37.726;2024-02-23T15:50:37;10.49;72.34
79026;DHT22;74892;44.760;37.726;2024-02-23T15:52:43;10.46;72.76
79026;DHT22;74892;44.760;37.726;2024-02-23T15:54:06;10.51;72.71
79026;DHT22;74892;44.760;37.726;2024-02-23T15:55:08;10.52;72.69
79026;DHT22;74892;44.760;37.726;2024-02-23T15:56:13;10.50;72.88
79026;DHT22;74892;44.760;37.726;2024-02-23T15:57:14;10.50;72.74
79026;DHT22;74892;44.760;37.726;2024-02-23T15:58:16;10.49;72.51
79026;DHT22;74892;44.760;37.726;2024-02-23T15:59:55;10.46;72.97
79026;DHT22;74892;44.760;37.726;2024-02-23T16:00:57;10.48;72.87
79026;DHT22;74892;44.760;37.726;2024-02-23T16:02:23;10.44;72.77
79026;DHT22;74892;44.760;37.726;2024-02-23T16:03:25;10.44;72.76
79026;DHT22;74892;44.760;37.726;2024-02-23T16:04:26;10.45;72.55
79026;DHT22;74892;44.760;37.726;2024-02-23T16:05:28;10.45;72.62
79026;DHT22;74892;44.760;37.726;2024-02-23T16:06:33;10.48;72.75
79026;DHT22;74892;44.760;37.726;2024-02-23T16:07:35;10.45;72.47
79026;DHT22;74892;44.760;37.726;2024-02-23T16:08:46;10.46;72.29
79026;DHT22;74892;44.760;37.726;2024-02-23T16:09:49;10.44;72.09
79026;DHT22;74892;44.760;37.726;2024-02-23T16:10:51;10.41;72.59
79026;DHT22;74892;44.760;37.726;2024-02-23T16:11:53;10.40;72.94
79026;DHT22;74892;44.760;37.726;2024-02-23T16:12:55;10.37;73.10
79026;DHT22;74892;44.760;37.726;2024-02-23T16:13:59;10.36;72.40
79026;DHT22;74892;44.760;37.726;2024-02-23T16:15:01;10.35;73.06
79026;DHT22;74892;44.760;37.726;2024-02-23T16:16:03;10.34;72.80
79026;DHT22;74892;44.760;37.726;2024-02-23T16:17:05;10.31;72.53
79026;DHT22;74892;44.760;37.726;2024-02-23T16:18:07;10.31;73.03
79026;DHT22;74892;44.760;37.726;2024-02-23T16:19:09;10.27;73.22
79026;DHT22;74892;44.760;37.726;2024-02-23T16:20:30;10.26;73.43
79026;DHT22;74892;44.760;37.726;2024-02-23T16:21:50;10.21;72.88
79026;DHT22;74892;44.760;37.726;2024-02-23T16:22:51;10.18;73.09
79026;DHT22;74892;44.760;37.726;2024-02-23T16:24:12;10.10;73.05
79026;DHT22;74892;44.760;37.726;2024-02-23T16:25:13;10.09;73.28